馬祖北竿航空站 - ATIS

SPECI RCMT 310839Z 06007KT 3300 BR SCT006 BKN008 26/23 Q1010 NOSIG RMK A2983(J)=

站台狀態:Offline
最後更新:2020-05-31 16:30:01